Time;durP1;ratioP1;P1;durP2;ratioP2;P2;SDS_P1;SDS_P2;PMS_P1;PMS_P2;Temp;Humidity;BMP_temperature;BMP_pressure;BME280_temperature;BME280_humidity;BME280_pressure;Samples;Min_cycle;Max_cycle;Signal;HPM_P1;HPM_P2
2023/10/12 00:01:57;;;;;;;13.18;11.88;;;;;;;;;;5056811;28;20036;-52
2023/10/12 00:07:25;;;;;;;13.85;12.32;;;;;;;;;;5060272;28;20050;-48
2023/10/12 00:10:01;;;;;;;15.88;13.40;;;;;;;;;;5056345;28;20046;-50
2023/10/12 00:12:27;;;;;;;13.38;11.95;;;;;;;;;;5064548;28;20044;-50
2023/10/12 00:14:55;;;;;;;13.52;12.05;;;;;;;;;;5056484;28;20104;-48
2023/10/12 00:17:23;;;;;;;14.35;12.13;;;;;;;;;;5061132;28;20044;-50
2023/10/12 00:19:53;;;;;;;15.90;13.23;;;;;;;;;;5056953;28;20040;-52
2023/10/12 00:22:19;;;;;;;13.98;12.48;;;;;;;;;;5056440;28;20119;-50
2023/10/12 00:24:44;;;;;;;15.13;13.38;;;;;;;;;;5061384;28;20044;-52
2023/10/12 00:27:14;;;;;;;13.70;11.77;;;;;;;;;;5051855;28;20074;-45
2023/10/12 00:29:40;;;;;;;13.07;11.68;;;;;;;;;;5056515;28;20032;-50
2023/10/12 00:32:07;;;;;;;12.90;11.43;;;;;;;;;;5056236;28;20037;-50
2023/10/12 00:34:39;;;;;;;14.63;13.00;;;;;;;;;;5062185;28;20025;-45
2023/10/12 00:37:06;;;;;;;13.10;11.80;;;;;;;;;;5062934;28;20037;-49
2023/10/12 00:40:22;;;;;;;16.00;13.88;;;;;;;;;;5055063;28;20962;-46
2023/10/12 00:42:33;;;;;;;16.08;14.38;;;;;;;;;;5053580;28;20044;-49
2023/10/12 00:45:19;;;;;;;15.13;12.20;;;;;;;;;;5055526;28;20020;-46
2023/10/12 00:47:44;;;;;;;14.65;12.98;;;;;;;;;;5065349;28;20090;-47
2023/10/12 00:50:13;;;;;;;15.18;12.65;;;;;;;;;;5057599;28;20036;-47
2023/10/12 00:52:55;;;;;;;15.23;11.63;;;;;;;;;;5052894;28;20041;-50
2023/10/12 00:55:26;;;;;;;16.02;12.25;;;;;;;;;;5061821;28;20433;-50
2023/10/12 00:57:52;;;;;;;16.98;12.38;;;;;;;;;;5051674;28;20037;-48
2023/10/12 01:00:18;;;;;;;15.15;12.52;;;;;;;;;;5057300;28;20355;-47
2023/10/12 01:03:06;;;;;;;15.23;13.63;;;;;;;;;;5065573;28;20032;-47
2023/10/12 01:05:35;;;;;;;16.05;13.60;;;;;;;;;;5047491;28;20605;-47
2023/10/12 01:08:05;;;;;;;16.63;13.75;;;;;;;;;;5066912;28;20414;-50
2023/10/12 01:10:32;;;;;;;14.73;12.80;;;;;;;;;;5058950;28;20025;-46
2023/10/12 01:13:00;;;;;;;14.57;12.45;;;;;;;;;;5050611;28;20044;-48
2023/10/12 01:15:29;;;;;;;15.90;13.10;;;;;;;;;;5055561;28;20029;-48
2023/10/12 01:17:56;;;;;;;15.48;13.10;;;;;;;;;;5052791;28;20040;-46
2023/10/12 01:20:26;;;;;;;15.70;13.52;;;;;;;;;;5057111;28;20033;-48
2023/10/12 01:22:57;;;;;;;15.90;13.15;;;;;;;;;;5058195;28;20047;-49
2023/10/12 01:25:28;;;;;;;14.73;13.23;;;;;;;;;;5054620;28;20021;-47
2023/10/12 01:27:54;;;;;;;14.57;12.48;;;;;;;;;;5057221;28;20056;-45
2023/10/12 01:30:27;;;;;;;16.40;12.50;;;;;;;;;;5050138;28;20036;-52
2023/10/12 01:32:58;;;;;;;14.82;13.25;;;;;;;;;;5066097;28;20059;-47
2023/10/12 01:35:32;;;;;;;15.63;13.93;;;;;;;;;;5055916;28;20390;-49
2023/10/12 01:38:01;;;;;;;14.15;11.07;;;;;;;;;;5059415;28;20419;-47
2023/10/12 01:43:12;;;;;;;12.68;11.38;;;;;;;;;;5057922;28;20052;-49
2023/10/12 01:45:41;;;;;;;14.23;12.73;;;;;;;;;;5056235;28;20028;-50
2023/10/12 01:50:33;;;;;;;14.63;11.80;;;;;;;;;;5060843;28;20031;-47
2023/10/12 01:53:00;;;;;;;13.25;11.80;;;;;;;;;;5062312;28;20086;-47
2023/10/12 01:55:30;;;;;;;14.13;12.82;;;;;;;;;;5059317;28;20053;-47
2023/10/12 01:57:57;;;;;;;12.32;11.10;;;;;;;;;;5048847;28;20495;-49
2023/10/12 02:00:25;;;;;;;15.65;12.82;;;;;;;;;;5057247;28;20032;-46
2023/10/12 02:03:00;;;;;;;13.73;10.65;;;;;;;;;;5058764;28;20064;-48
2023/10/12 02:05:29;;;;;;;14.07;12.10;;;;;;;;;;5055726;28;20084;-49
2023/10/12 02:07:55;;;;;;;14.43;11.45;;;;;;;;;;5053109;28;20033;-47
2023/10/12 02:10:24;;;;;;;13.52;11.75;;;;;;;;;;5063481;28;20020;-48
2023/10/12 02:12:51;;;;;;;13.48;12.10;;;;;;;;;;5054758;28;20053;-51
2023/10/12 02:15:17;;;;;;;13.88;12.38;;;;;;;;;;5053185;28;20029;-47
2023/10/12 02:17:43;;;;;;;13.30;12.00;;;;;;;;;;5055712;28;20037;-50
2023/10/12 02:20:12;;;;;;;14.00;11.90;;;;;;;;;;5050837;28;20036;-49
2023/10/12 02:22:38;;;;;;;14.90;12.35;;;;;;;;;;5055042;28;20087;-50
2023/10/12 02:25:18;;;;;;;13.85;11.95;;;;;;;;;;5062441;28;20045;-51
2023/10/12 02:27:54;;;;;;;14.45;12.98;;;;;;;;;;5048935;28;20033;-47
2023/10/12 02:30:28;;;;;;;14.25;12.77;;;;;;;;;;5054786;28;20091;-48
2023/10/12 02:33:00;;;;;;;13.43;11.27;;;;;;;;;;5058077;28;20037;-49
2023/10/12 02:35:27;;;;;;;13.57;11.32;;;;;;;;;;5056158;28;20029;-46
2023/10/12 02:37:52;;;;;;;12.68;11.38;;;;;;;;;;5056187;28;20041;-46
2023/10/12 02:40:19;;;;;;;13.57;10.88;;;;;;;;;;5059494;28;20021;-48
2023/10/12 02:42:51;;;;;;;13.65;12.25;;;;;;;;;;5056883;28;20040;-48
2023/10/12 02:45:17;;;;;;;16.10;11.55;;;;;;;;;;5060490;28;20021;-48
2023/10/12 02:47:45;;;;;;;16.00;11.73;;;;;;;;;;5061537;28;20041;-48
2023/10/12 02:52:37;;;;;;;14.38;11.02;;;;;;;;;;5061790;28;20410;-52
2023/10/12 02:55:49;;;;;;;13.07;11.35;;;;;;;;;;5058752;28;20024;-49
2023/10/12 02:57:59;;;;;;;13.73;10.60;;;;;;;;;;5055359;28;20028;-48
2023/10/12 03:05:58;;;;;;;12.98;11.75;;;;;;;;;;5063018;28;20091;-47
2023/10/12 03:08:24;;;;;;;12.88;11.05;;;;;;;;;;5057710;28;20049;-47
2023/10/12 03:11:11;;;;;;;13.48;12.00;;;;;;;;;;5058822;28;20039;-50
2023/10/12 03:13:41;;;;;;;13.25;11.77;;;;;;;;;;5054812;28;20086;-49
2023/10/12 03:16:54;;;;;;;11.65;9.85;;;;;;;;;;5061889;28;20033;-50
2023/10/12 03:21:38;;;;;;;10.80;9.50;;;;;;;;;;5062782;28;20124;-49
2023/10/12 03:24:05;;;;;;;12.48;11.18;;;;;;;;;;5056535;28;20044;-48
2023/10/12 03:26:33;;;;;;;11.93;10.70;;;;;;;;;;5057768;28;20056;-48
2023/10/12 03:29:09;;;;;;;10.90;9.73;;;;;;;;;;5056575;28;20059;-47
2023/10/12 03:31:53;;;;;;;11.73;9.80;;;;;;;;;;5060570;28;20468;-50
2023/10/12 03:37:01;;;;;;;;;;;;;;;;;;5058124;28;20045;-47
2023/10/12 03:39:27;;;;;;;10.98;9.82;;;;;;;;;;5066953;28;19923;-50
2023/10/12 03:42:41;;;;;;;13.65;12.20;;;;;;;;;;5060127;28;20067;-45
2023/10/12 03:48:22;;;;;;;13.55;11.27;;;;;;;;;;5003065;28;20042;-47
2023/10/12 03:53:36;;;;;;;13.05;10.38;;;;;;;;;;5058984;28;20047;-47
2023/10/12 03:56:07;;;;;;;11.75;10.48;;;;;;;;;;5056780;28;20029;-49
2023/10/12 03:58:38;;;;;;;13.18;11.75;;;;;;;;;;5059001;28;20041;-50
2023/10/12 04:01:12;;;;;;;13.30;11.90;;;;;;;;;;5053579;28;20032;-48
2023/10/12 04:03:40;;;;;;;12.65;11.35;;;;;;;;;;5065459;28;20506;-51
2023/10/12 04:06:15;;;;;;;11.50;9.68;;;;;;;;;;5056936;28;20526;-48
2023/10/12 04:08:51;;;;;;;11.48;10.27;;;;;;;;;;5060937;28;20791;-48
2023/10/12 04:16:45;;;;;;;10.90;9.57;;;;;;;;;;5059621;28;20047;-49
2023/10/12 04:19:15;;;;;;;11.98;10.77;;;;;;;;;;5055832;28;20125;-47
2023/10/12 04:21:56;;;;;;;10.73;9.65;;;;;;;;;;5060889;28;20037;-50
2023/10/12 04:24:27;;;;;;;10.50;9.40;;;;;;;;;;5060218;28;20017;-48
2023/10/12 04:29:39;;;;;;;9.82;8.90;;;;;;;;;;5051322;28;20123;-49
2023/10/12 04:32:15;;;;;;;9.63;8.57;;;;;;;;;;5064409;28;20037;-47
2023/10/12 04:34:49;;;;;;;11.02;9.95;;;;;;;;;;5050667;28;20022;-49
2023/10/12 04:37:22;;;;;;;9.70;8.50;;;;;;;;;;5060868;28;20379;-51
2023/10/12 04:39:56;;;;;;;9.35;8.45;;;;;;;;;;5052778;28;20028;-48
2023/10/12 04:42:33;;;;;;;9.02;8.13;;;;;;;;;;5062436;28;20132;-49
2023/10/12 04:47:46;;;;;;;8.68;7.57;;;;;;;;;;5054321;28;20072;-49
2023/10/12 04:50:26;;;;;;;9.38;8.45;;;;;;;;;;5052263;28;20708;-50
2023/10/12 04:53:07;;;;;;;;;;;;;;;;;;5059161;28;20028;-48
2023/10/12 04:55:34;;;;;;;8.23;7.43;;;;;;;;;;5063862;28;19944;-48
2023/10/12 05:01:16;;;;;;;7.30;6.60;;;;;;;;;;4990955;28;20436;-47
2023/10/12 05:03:41;;;;;;;;;;;;;;;;;;5045813;28;20056;-48
2023/10/12 05:06:13;;;;;;;8.50;7.65;;;;;;;;;;5052966;28;20365;-51
2023/10/12 05:08:40;;;;;;;8.80;8.00;;;;;;;;;;5049070;28;20052;-50
2023/10/12 05:11:08;;;;;;;7.80;7.10;;;;;;;;;;5056743;28;20078;-50
2023/10/12 05:13:33;;;;;;;8.50;7.70;;;;;;;;;;5053432;28;20399;-47
2023/10/12 05:16:05;;;;;;;9.88;8.95;;;;;;;;;;5049144;28;20032;-50
2023/10/12 05:18:34;;;;;;;9.05;8.15;;;;;;;;;;5050002;28;20033;-46
2023/10/12 05:21:00;;;;;;;9.57;8.57;;;;;;;;;;5050676;28;20025;-49
2023/10/12 05:23:26;;;;;;;9.90;9.00;;;;;;;;;;5050510;28;20072;-51
2023/10/12 05:28:18;;;;;;;8.43;7.63;;;;;;;;;;5050919;28;20048;-47
2023/10/12 05:31:09;;;;;;;8.40;7.60;;;;;;;;;;5047639;28;20078;-49
2023/10/12 05:33:38;;;;;;;8.82;7.93;;;;;;;;;;5051573;28;20036;-49
2023/10/12 05:36:08;;;;;;;8.13;7.40;;;;;;;;;;5052159;28;20064;-47
2023/10/12 05:38:35;;;;;;;9.38;8.40;;;;;;;;;;5057284;28;20120;-51
2023/10/12 05:41:08;;;;;;;9.35;6.78;;;;;;;;;;5048603;28;20029;-48
2023/10/12 05:43:39;;;;;;;7.95;7.25;;;;;;;;;;5066414;28;20039;-49
2023/10/12 05:46:15;;;;;;;8.27;7.30;;;;;;;;;;5053067;28;20124;-51
2023/10/12 05:48:52;;;;;;;8.30;7.50;;;;;;;;;;5055946;28;20041;-49
2023/10/12 05:51:24;;;;;;;8.02;7.22;;;;;;;;;;5051502;28;20026;-48
2023/10/12 05:53:57;;;;;;;8.80;7.93;;;;;;;;;;5051970;28;20025;-50
2023/10/12 05:56:23;;;;;;;9.43;8.63;;;;;;;;;;5051005;28;20437;-51
2023/10/12 05:58:48;;;;;;;10.15;9.15;;;;;;;;;;5046261;28;20061;-50
2023/10/12 06:01:32;;;;;;;9.75;8.82;;;;;;;;;;5064063;28;20025;-49
2023/10/12 06:03:58;;;;;;;8.02;6.97;;;;;;;;;;5049357;28;20048;-49
2023/10/12 06:06:23;;;;;;;8.43;7.63;;;;;;;;;;5044235;28;20024;-53
2023/10/12 06:08:52;;;;;;;9.23;8.27;;;;;;;;;;5044404;28;20020;-50
2023/10/12 06:11:18;;;;;;;11.32;9.23;;;;;;;;;;5050231;28;20028;-48
2023/10/12 06:13:45;;;;;;;10.73;9.65;;;;;;;;;;5057313;28;20031;-48
2023/10/12 06:16:15;;;;;;;9.80;8.80;;;;;;;;;;5052881;28;20045;-50
2023/10/12 06:18:47;;;;;;;8.88;7.90;;;;;;;;;;5051045;28;20526;-48
2023/10/12 06:21:19;;;;;;;9.60;8.70;;;;;;;;;;5055265;28;20033;-48
2023/10/12 06:23:50;;;;;;;11.60;9.35;;;;;;;;;;5063760;28;20676;-47
2023/10/12 06:26:34;;;;;;;9.80;8.80;;;;;;;;;;5059879;28;20033;-46
2023/10/12 06:29:00;;;;;;;8.95;7.70;;;;;;;;;;5055072;28;20033;-49
2023/10/12 06:31:29;;;;;;;10.73;8.90;;;;;;;;;;5064274;28;20064;-48
2023/10/12 06:33:56;;;;;;;9.50;8.45;;;;;;;;;;5060493;28;20017;-50
2023/10/12 06:36:37;;;;;;;8.65;7.65;;;;;;;;;;5060334;28;20029;-49
2023/10/12 06:41:58;;;;;;;9.85;8.93;;;;;;;;;;5054094;28;20037;-52
2023/10/12 06:44:27;;;;;;;8.77;7.40;;;;;;;;;;5057895;28;20029;-52
2023/10/12 06:47:28;;;;;;;8.65;7.85;;;;;;;;;;5057174;28;20037;-51
2023/10/12 06:49:51;;;;;;;10.55;8.35;;;;;;;;;;5053674;28;20505;-48
2023/10/12 06:52:19;;;;;;;8.18;7.38;;;;;;;;;;5055724;28;20041;-47
2023/10/12 06:54:49;;;;;;;9.93;8.13;;;;;;;;;;5064310;28;20021;-49
2023/10/12 06:59:52;;;;;;;9.50;8.15;;;;;;;;;;5059363;28;20052;-49
2023/10/12 07:02:22;;;;;;;10.88;9.25;;;;;;;;;;5057890;28;20494;-48
2023/10/12 07:04:53;;;;;;;9.98;8.98;;;;;;;;;;5058007;28;20021;-48
2023/10/12 07:12:48;;;;;;;8.00;7.20;;;;;;;;;;5058268;28;20033;-49
2023/10/12 07:15:22;;;;;;;9.23;7.90;;;;;;;;;;5053829;28;20524;-45
2023/10/12 07:17:52;;;;;;;9.63;8.63;;;;;;;;;;5058922;28;20044;-48
2023/10/12 07:22:56;;;;;;;8.55;7.75;;;;;;;;;;5047988;28;20042;-48
2023/10/12 07:25:27;;;;;;;8.38;7.68;;;;;;;;;;5053273;28;20033;-49
2023/10/12 07:28:01;;;;;;;9.35;8.45;;;;;;;;;;5057003;28;20031;-51
2023/10/12 07:30:30;;;;;;;9.73;8.82;;;;;;;;;;5067803;28;20043;-49
2023/10/12 07:33:04;;;;;;;8.43;7.72;;;;;;;;;;5060933;28;20048;-47
2023/10/12 07:35:34;;;;;;;7.65;6.88;;;;;;;;;;5057192;28;20762;-50
2023/10/12 07:38:12;;;;;;;8.15;7.35;;;;;;;;;;5069230;28;20033;-47
2023/10/12 07:41:00;;;;;;;8.00;7.07;;;;;;;;;;5057505;28;20028;-51
2023/10/12 07:43:26;;;;;;;8.98;8.18;;;;;;;;;;5063272;28;20041;-51
2023/10/12 07:45:52;;;;;;;8.57;7.78;;;;;;;;;;5058136;28;20389;-48
2023/10/12 07:48:30;;;;;;;8.23;7.45;;;;;;;;;;5060188;28;20392;-46
2023/10/12 07:53:44;;;;;;;8.48;7.72;;;;;;;;;;5052260;28;20523;-50
2023/10/12 07:56:15;;;;;;;8.48;7.60;;;;;;;;;;5058387;28;20025;-50
2023/10/12 07:58:48;;;;;;;7.53;6.78;;;;;;;;;;5056800;28;20049;-49
2023/10/12 08:01:26;;;;;;;8.48;7.78;;;;;;;;;;5056501;28;20029;-48
2023/10/12 08:03:52;;;;;;;8.50;7.68;;;;;;;;;;5050726;28;20503;-47
2023/10/12 08:11:48;;;;;;;7.32;6.53;;;;;;;;;;5053617;28;20045;-50
2023/10/12 08:14:39;;;;;;;9.43;6.55;;;;;;;;;;5051568;28;20033;-49
2023/10/12 08:19:56;;;;;;;7.82;7.03;;;;;;;;;;5055259;28;20035;-46
2023/10/12 08:22:26;;;;;;;7.72;7.03;;;;;;;;;;5052087;28;20125;-51
2023/10/12 08:24:56;;;;;;;7.60;6.90;;;;;;;;;;5053129;28;20048;-49
2023/10/12 08:27:23;;;;;;;7.53;6.82;;;;;;;;;;5054357;28;20029;-48
2023/10/12 08:32:21;;;;;;;7.15;6.43;;;;;;;;;;5043957;28;20087;-47
2023/10/12 08:37:26;;;;;;;8.18;7.38;;;;;;;;;;5049000;28;20394;-51
2023/10/12 08:42:37;;;;;;;8.20;7.40;;;;;;;;;;5049728;28;20419;-50
2023/10/12 08:45:15;;;;;;;7.88;6.93;;;;;;;;;;5056445;28;20031;-51
2023/10/12 08:47:48;;;;;;;8.13;7.30;;;;;;;;;;5061028;28;20041;-52
2023/10/12 08:52:50;;;;;;;9.82;7.72;;;;;;;;;;5057352;28;20063;-52
2023/10/12 08:55:19;;;;;;;8.10;7.13;;;;;;;;;;5048446;28;20128;-52
2023/10/12 08:58:01;;;;;;;7.40;6.28;;;;;;;;;;5055265;28;20037;-52
2023/10/12 09:05:42;;;;;;;7.43;6.63;;;;;;;;;;5056913;28;20024;-48
2023/10/12 09:13:23;;;;;;;;;;;;;;;;;;5040432;28;20044;-49
2023/10/12 09:15:54;;;;;;;8.70;6.27;;;;;;;;;;5059821;28;19916;-51
2023/10/12 09:18:21;;;;;;;8.95;7.93;;;;;;;;;;5052031;28;20450;-48
2023/10/12 09:31:13;;;;;;;10.18;9.18;;;;;;;;;;5055842;28;20036;-51
2023/10/12 09:34:12;;;;;;;9.05;8.15;;;;;;;;;;5053561;28;20520;-51
2023/10/12 09:36:53;;;;;;;21.10;18.95;;;;;;;;;;5051567;28;20041;-47
2023/10/12 09:39:24;;;;;;;16.48;13.60;;;;;;;;;;5053541;28;20033;-53
2023/10/12 09:41:59;;;;;;;18.65;14.88;;;;;;;;;;5057148;28;20055;-52
2023/10/12 09:44:27;;;;;;;15.98;14.20;;;;;;;;;;5050583;28;20048;-52
2023/10/12 09:46:56;;;;;;;13.30;11.88;;;;;;;;;;5055377;28;20040;-49
2023/10/12 09:49:24;;;;;;;12.02;10.77;;;;;;;;;;5055838;28;20032;-49
2023/10/12 09:51:54;;;;;;;9.50;8.57;;;;;;;;;;5074094;28;20036;-50
2023/10/12 09:54:45;;;;;;;10.57;9.38;;;;;;;;;;5050053;28;20036;-51
2023/10/12 09:57:30;;;;;;;16.77;12.45;;;;;;;;;;5053025;28;20554;-52
2023/10/12 09:59:59;;;;;;;15.63;13.88;;;;;;;;;;5057504;28;20033;-52
2023/10/12 10:02:32;;;;;;;11.63;9.85;;;;;;;;;;5056166;28;20053;-51
2023/10/12 10:07:42;;;;;;;13.02;11.68;;;;;;;;;;5054213;28;20064;-52
2023/10/12 10:10:30;;;;;;;14.52;12.98;;;;;;;;;;5055434;28;20442;-49
2023/10/12 10:13:00;;;;;;;21.75;18.48;;;;;;;;;;5048733;28;20591;-46
2023/10/12 10:15:36;;;;;;;21.70;17.88;;;;;;;;;;5052075;28;20483;-49
2023/10/12 10:18:05;;;;;;;15.25;12.73;;;;;;;;;;5052194;28;20399;-50
2023/10/12 10:20:56;;;;;;;14.85;13.32;;;;;;;;;;5050115;28;20024;-47
2023/10/12 10:23:22;;;;;;;15.13;12.10;;;;;;;;;;5052028;28;20089;-47
2023/10/12 10:26:01;;;;;;;15.07;13.40;;;;;;;;;;5053902;28;20088;-51
2023/10/12 10:28:28;;;;;;;14.85;13.45;;;;;;;;;;5046395;28;20044;-46
2023/10/12 10:30:59;;;;;;;15.40;13.60;;;;;;;;;;5040595;28;20417;-46
2023/10/12 10:33:26;;;;;;;11.85;10.73;;;;;;;;;;5049367;28;20044;-49
2023/10/12 10:36:10;;;;;;;12.20;10.98;;;;;;;;;;5046300;28;20084;-48
2023/10/12 10:38:53;;;;;;;11.20;10.18;;;;;;;;;;5051349;28;20127;-46
2023/10/12 10:41:38;;;;;;;11.50;9.82;;;;;;;;;;5055745;28;20486;-48
2023/10/12 10:44:08;;;;;;;12.77;10.80;;;;;;;;;;5050994;28;20025;-51
2023/10/12 10:46:39;;;;;;;10.77;9.75;;;;;;;;;;5055269;28;20033;-48
2023/10/12 10:49:06;;;;;;;11.70;8.15;;;;;;;;;;5057704;28;20025;-50
2023/10/12 10:51:32;;;;;;;11.25;10.15;;;;;;;;;;5045654;28;20033;-47
2023/10/12 10:53:58;;;;;;;10.45;9.48;;;;;;;;;;5049718;28;20041;-49
2023/10/12 10:56:36;;;;;;;12.02;10.82;;;;;;;;;;5047494;28;20033;-50
2023/10/12 10:59:04;;;;;;;12.20;10.77;;;;;;;;;;5055641;28;20064;-49
2023/10/12 11:01:30;;;;;;;16.65;13.70;;;;;;;;;;5052283;28;20033;-49
2023/10/12 11:03:58;;;;;;;13.10;11.90;;;;;;;;;;5058262;28;20028;-47
2023/10/12 11:06:27;;;;;;;13.15;11.90;;;;;;;;;;5067765;28;20536;-51
2023/10/12 11:09:14;;;;;;;10.98;9.80;;;;;;;;;;5051438;28;20112;-50
2023/10/12 11:11:45;;;;;;;;;;;;;;;;;;5058258;28;20037;-52
2023/10/12 11:14:12;;;;;;;12.05;10.85;;;;;;;;;;5058707;28;20003;-51
2023/10/12 11:16:38;;;;;;;13.02;11.75;;;;;;;;;;5060134;28;20468;-45
2023/10/12 11:19:08;;;;;;;11.63;10.52;;;;;;;;;;5054317;28;20120;-52
2023/10/12 11:21:34;;;;;;;13.38;11.30;;;;;;;;;;5069027;28;20024;-47
2023/10/12 11:24:01;;;;;;;9.10;8.13;;;;;;;;;;5055176;28;20032;-48
2023/10/12 11:26:28;;;;;;;10.10;9.05;;;;;;;;;;5051485;28;20017;-51
2023/10/12 11:29:04;;;;;;;11.43;10.32;;;;;;;;;;5058128;28;20025;-52
2023/10/12 11:31:30;;;;;;;10.73;9.70;;;;;;;;;;5051521;28;20029;-51
2023/10/12 11:33:56;;;;;;;11.55;10.45;;;;;;;;;;5052897;28;20040;-51
2023/10/12 11:36:25;;;;;;;10.00;9.00;;;;;;;;;;5059465;28;20029;-50
2023/10/12 11:39:01;;;;;;;10.13;9.13;;;;;;;;;;5057738;28;20021;-50
2023/10/12 11:41:27;;;;;;;10.63;9.65;;;;;;;;;;5050077;28;20090;-47
2023/10/12 11:43:54;;;;;;;11.57;10.48;;;;;;;;;;5046951;28;20025;-50
2023/10/12 11:46:24;;;;;;;11.35;10.25;;;;;;;;;;5058851;28;20036;-51
2023/10/12 11:49:07;;;;;;;10.70;9.70;;;;;;;;;;5056524;28;20039;-50
2023/10/12 11:51:40;;;;;;;11.57;10.50;;;;;;;;;;5057821;28;20067;-49
2023/10/12 11:54:06;;;;;;;10.20;9.20;;;;;;;;;;5063646;28;20033;-50
2023/10/12 11:56:33;;;;;;;11.07;10.05;;;;;;;;;;5059234;28;20073;-52
2023/10/12 11:58:58;;;;;;;12.27;11.13;;;;;;;;;;5052683;28;20120;-48
2023/10/12 12:01:33;;;;;;;10.23;9.25;;;;;;;;;;5058769;28;20061;-50
2023/10/12 12:03:59;;;;;;;9.77;8.85;;;;;;;;;;5065399;28;20036;-50
2023/10/12 12:06:26;;;;;;;10.60;9.70;;;;;;;;;;5056514;28;20056;-48
2023/10/12 12:08:56;;;;;;;11.00;10.00;;;;;;;;;;5062331;28;20063;-50
2023/10/12 12:11:31;;;;;;;9.15;7.57;;;;;;;;;;5052770;28;20048;-48
2023/10/12 12:13:56;;;;;;;;;;;;;;;;;;5057698;28;20033;-51
2023/10/12 12:16:21;;;;;;;9.38;8.35;;;;;;;;;;5057516;28;19923;-46
2023/10/12 12:18:53;;;;;;;14.95;8.05;;;;;;;;;;5057978;28;20035;-49
2023/10/12 12:21:34;;;;;;;9.63;8.82;;;;;;;;;;5060105;28;20029;-50
2023/10/12 12:26:44;;;;;;;10.63;9.77;;;;;;;;;;5055629;28;19938;-50
2023/10/12 12:29:11;;;;;;;9.75;8.73;;;;;;;;;;5049208;28;20111;-51
2023/10/12 12:31:37;;;;;;;9.82;8.93;;;;;;;;;;5052747;28;20041;-48
2023/10/12 12:34:06;;;;;;;12.23;8.65;;;;;;;;;;5059675;28;20840;-49
2023/10/12 12:36:32;;;;;;;11.73;10.52;;;;;;;;;;5056049;28;20029;-50
2023/10/12 12:39:00;;;;;;;10.20;9.27;;;;;;;;;;5048097;28;20052;-48
2023/10/12 12:41:26;;;;;;;9.98;9.07;;;;;;;;;;5054275;28;20032;-47
2023/10/12 12:43:53;;;;;;;10.43;9.35;;;;;;;;;;5059925;28;20024;-47
2023/10/12 12:46:19;;;;;;;10.30;8.68;;;;;;;;;;5064818;28;20028;-46
2023/10/12 12:48:53;;;;;;;9.82;9.02;;;;;;;;;;5056550;28;20028;-48
2023/10/12 12:51:19;;;;;;;10.63;9.65;;;;;;;;;;5055675;28;20024;-47
2023/10/12 12:53:47;;;;;;;11.40;9.55;;;;;;;;;;5058432;28;20143;-49
2023/10/12 12:56:17;;;;;;;11.80;10.75;;;;;;;;;;5056258;28;20061;-48
2023/10/12 12:58:47;;;;;;;10.40;9.50;;;;;;;;;;5046155;28;20059;-46
2023/10/12 13:01:17;;;;;;;11.57;10.38;;;;;;;;;;5053352;28;20112;-47
2023/10/12 13:03:46;;;;;;;12.18;11.05;;;;;;;;;;5056446;28;20056;-50
2023/10/12 13:06:14;;;;;;;10.55;9.65;;;;;;;;;;5060629;28;20029;-47
2023/10/12 13:08:40;;;;;;;11.52;10.38;;;;;;;;;;5064787;28;20087;-48
2023/10/12 13:11:05;;;;;;;10.20;9.23;;;;;;;;;;5053867;28;20036;-48
2023/10/12 13:13:33;;;;;;;10.98;9.88;;;;;;;;;;5054906;28;20048;-47
2023/10/12 13:16:05;;;;;;;10.40;9.50;;;;;;;;;;5049741;28;20033;-47
2023/10/12 13:18:32;;;;;;;11.82;9.70;;;;;;;;;;5057118;28;20041;-47
2023/10/12 13:20:59;;;;;;;10.23;9.27;;;;;;;;;;5063022;28;20064;-50
2023/10/12 13:23:25;;;;;;;11.40;9.70;;;;;;;;;;5055736;28;20048;-52
2023/10/12 13:25:50;;;;;;;10.90;9.77;;;;;;;;;;5058918;28;20524;-51
2023/10/12 13:28:16;;;;;;;11.55;10.60;;;;;;;;;;5061887;28;20037;-52
2023/10/12 13:30:43;;;;;;;11.20;10.05;;;;;;;;;;5054599;28;20728;-52
2023/10/12 13:33:11;;;;;;;11.02;9.93;;;;;;;;;;5053047;28;20072;-47
2023/10/12 13:38:09;;;;;;;10.10;9.30;;;;;;;;;;5050380;28;20135;-49
2023/10/12 13:40:39;;;;;;;9.77;8.88;;;;;;;;;;5053928;28;20475;-49
2023/10/12 13:43:26;;;;;;;9.55;8.30;;;;;;;;;;5053590;28;20464;-51
2023/10/12 13:45:54;;;;;;;10.70;9.48;;;;;;;;;;5046218;28;20035;-51
2023/10/12 13:48:29;;;;;;;10.30;9.50;;;;;;;;;;5056259;28;20642;-49
2023/10/12 13:51:04;;;;;;;9.85;8.88;;;;;;;;;;5051334;28;20033;-49
2023/10/12 13:53:36;;;;;;;8.68;7.72;;;;;;;;;;5055696;28;20029;-47
2023/10/12 13:56:04;;;;;;;9.00;8.23;;;;;;;;;;5056043;28;20514;-49
2023/10/12 13:58:34;;;;;;;8.88;8.07;;;;;;;;;;5047729;28;20041;-51
2023/10/12 14:01:01;;;;;;;9.90;9.15;;;;;;;;;;5058477;28;20033;-50
2023/10/12 14:03:34;;;;;;;9.73;8.77;;;;;;;;;;5055013;28;20057;-50
2023/10/12 14:06:01;;;;;;;10.02;8.05;;;;;;;;;;5066891;28;20052;-51
2023/10/12 14:08:28;;;;;;;8.80;7.93;;;;;;;;;;5053819;28;20041;-47
2023/10/12 14:10:54;;;;;;;8.45;7.68;;;;;;;;;;5056070;28;20035;-50
2023/10/12 14:13:20;;;;;;;8.55;7.75;;;;;;;;;;5060531;28;20040;-49
2023/10/12 14:15:47;;;;;;;8.43;7.63;;;;;;;;;;5055501;28;20053;-50
2023/10/12 14:18:18;;;;;;;9.93;9.10;;;;;;;;;;5060894;28;20040;-50
2023/10/12 14:20:44;;;;;;;9.07;8.18;;;;;;;;;;5064447;28;20475;-50
2023/10/12 14:23:10;;;;;;;10.23;9.27;;;;;;;;;;5054302;28;20120;-50
2023/10/12 14:25:38;;;;;;;10.02;8.80;;;;;;;;;;5061561;28;20060;-48
2023/10/12 14:28:05;;;;;;;10.75;9.75;;;;;;;;;;5055246;28;20072;-49
2023/10/12 14:30:34;;;;;;;11.52;10.43;;;;;;;;;;5054872;28;20036;-47
2023/10/12 14:33:02;;;;;;;;;;;;;;;;;;5060258;28;20047;-47
2023/10/12 14:35:29;;;;;;;10.68;9.48;;;;;;;;;;5056561;28;19924;-47
2023/10/12 14:37:55;;;;;;;9.40;8.57;;;;;;;;;;5055268;28;20033;-51
2023/10/12 14:40:28;;;;;;;11.10;9.15;;;;;;;;;;5055751;28;22393;-49
2023/10/12 14:42:54;;;;;;;10.02;9.10;;;;;;;;;;5054882;28;20482;-50
2023/10/12 14:45:21;;;;;;;11.15;10.07;;;;;;;;;;5066680;28;20086;-47
2023/10/12 14:47:47;;;;;;;10.32;9.25;;;;;;;;;;5058428;28;20041;-52
2023/10/12 14:50:16;;;;;;;9.95;8.63;;;;;;;;;;5054783;28;20035;-51
2023/10/12 14:52:44;;;;;;;11.23;7.97;;;;;;;;;;5047394;28;20075;-51
2023/10/12 14:55:10;;;;;;;10.27;9.38;;;;;;;;;;5053974;28;20078;-48
2023/10/12 14:57:40;;;;;;;10.48;9.38;;;;;;;;;;5057806;28;20045;-46
2023/10/12 15:00:10;;;;;;;11.43;9.80;;;;;;;;;;5065605;28;20029;-49
2023/10/12 15:02:39;;;;;;;11.20;10.02;;;;;;;;;;5063081;28;20045;-51
2023/10/12 15:05:06;;;;;;;11.00;9.07;;;;;;;;;;5044900;28;20035;-52
2023/10/12 15:07:37;;;;;;;9.98;8.82;;;;;;;;;;5055084;28;20083;-51
2023/10/12 15:10:05;;;;;;;10.23;7.95;;;;;;;;;;5051111;28;20070;-48
2023/10/12 15:12:32;;;;;;;7.75;6.45;;;;;;;;;;5059174;28;20445;-49
2023/10/12 15:15:00;;;;;;;9.35;8.45;;;;;;;;;;5058154;28;20486;-46
2023/10/12 15:17:26;;;;;;;8.60;7.80;;;;;;;;;;5057010;28;20040;-46
2023/10/12 15:19:53;;;;;;;8.68;7.60;;;;;;;;;;5057950;28;20539;-50
2023/10/12 15:22:18;;;;;;;12.10;10.02;;;;;;;;;;5056629;28;20041;-47
2023/10/12 15:24:44;;;;;;;11.18;8.82;;;;;;;;;;5063088;28;20085;-49
2023/10/12 15:27:10;;;;;;;9.20;8.30;;;;;;;;;;5060524;28;20037;-49
2023/10/12 15:29:37;;;;;;;8.05;7.25;;;;;;;;;;5055218;28;20028;-47
2023/10/12 15:32:03;;;;;;;9.50;8.52;;;;;;;;;;5058149;28;20043;-50
2023/10/12 15:34:31;;;;;;;9.00;7.90;;;;;;;;;;5058476;28;20056;-47
2023/10/12 15:37:00;;;;;;;11.48;10.57;;;;;;;;;;5057217;28;20063;-50
2023/10/12 15:39:27;;;;;;;8.43;7.43;;;;;;;;;;5050502;28;20079;-45
2023/10/12 15:41:52;;;;;;;11.48;9.65;;;;;;;;;;5058060;28;20064;-51
2023/10/12 15:44:18;;;;;;;8.10;7.40;;;;;;;;;;5052108;28;20031;-48
2023/10/12 15:46:44;;;;;;;8.57;7.82;;;;;;;;;;5055592;28;20124;-50
2023/10/12 15:49:10;;;;;;;8.13;7.43;;;;;;;;;;5055964;28;20024;-49
2023/10/12 15:51:35;;;;;;;11.02;9.20;;;;;;;;;;5053776;28;20040;-48
2023/10/12 15:54:05;;;;;;;8.55;7.85;;;;;;;;;;5061586;28;20588;-47
2023/10/12 15:56:31;;;;;;;8.88;8.02;;;;;;;;;;5052238;28;20025;-46
2023/10/12 15:58:56;;;;;;;7.70;7.00;;;;;;;;;;5047304;28;20028;-47
2023/10/12 16:01:22;;;;;;;8.18;7.38;;;;;;;;;;5059297;28;20490;-45
2023/10/12 16:03:47;;;;;;;8.20;7.07;;;;;;;;;;5056194;28;20064;-51
2023/10/12 16:06:13;;;;;;;8.30;7.57;;;;;;;;;;5059228;28;20071;-48
2023/10/12 16:08:39;;;;;;;7.53;6.60;;;;;;;;;;5059706;28;20125;-51
2023/10/12 16:11:05;;;;;;;7.95;7.22;;;;;;;;;;5049281;28;20029;-46
2023/10/12 16:13:34;;;;;;;6.95;6.35;;;;;;;;;;5053063;28;20044;-47
2023/10/12 16:16:06;;;;;;;;;;;;;;;;;;5053319;28;20025;-48
2023/10/12 16:18:32;;;;;;;8.05;6.40;;;;;;;;;;5059928;28;19993;-50
2023/10/12 16:21:06;;;;;;;5.97;5.47;;;;;;;;;;5060475;28;20037;-46
2023/10/12 16:23:32;;;;;;;8.18;6.47;;;;;;;;;;5056972;28;20041;-48
2023/10/12 16:25:58;;;;;;;6.03;5.43;;;;;;;;;;5058194;28;20497;-45
2023/10/12 16:28:24;;;;;;;7.43;6.72;;;;;;;;;;5043544;28;20044;-48
2023/10/12 16:30:54;;;;;;;6.40;5.72;;;;;;;;;;5048711;28;20025;-47
2023/10/12 16:33:21;;;;;;;7.70;6.88;;;;;;;;;;5052491;28;20040;-49
2023/10/12 16:35:49;;;;;;;6.57;5.82;;;;;;;;;;5053779;28;20037;-49
2023/10/12 16:38:14;;;;;;;6.50;5.90;;;;;;;;;;5054121;28;20044;-50
2023/10/12 16:40:40;;;;;;;7.20;6.50;;;;;;;;;;5056028;28;20088;-48